sensor_id;sensor_type;location;lat;lon;timestamp;P1;durP1;ratioP1;P2;durP2;ratioP2
41201;SDS011;26936;50.524;8.684;2023-11-22T00:01:17;7.25;;;3.63;;
41201;SDS011;26936;50.524;8.684;2023-11-22T00:03:43;5.32;;;2.92;;
41201;SDS011;26936;50.524;8.684;2023-11-22T00:06:09;9.35;;;3.80;;
41201;SDS011;26936;50.524;8.684;2023-11-22T00:08:37;6.40;;;3.70;;
41201;SDS011;26936;50.524;8.684;2023-11-22T00:11:05;6.32;;;3.45;;
41201;SDS011;26936;50.524;8.684;2023-11-22T00:13:31;10.50;;;3.53;;
41201;SDS011;26936;50.524;8.684;2023-11-22T00:15:57;5.38;;;3.05;;
41201;SDS011;26936;50.524;8.684;2023-11-22T00:18:22;5.32;;;3.30;;
41201;SDS011;26936;50.524;8.684;2023-11-22T00:20:51;6.88;;;3.22;;
41201;SDS011;26936;50.524;8.684;2023-11-22T00:23:17;6.15;;;3.38;;
41201;SDS011;26936;50.524;8.684;2023-11-22T00:25:42;6.50;;;3.70;;
41201;SDS011;26936;50.524;8.684;2023-11-22T00:28:08;5.95;;;3.30;;
41201;SDS011;26936;50.524;8.684;2023-11-22T00:30:33;5.28;;;3.38;;
41201;SDS011;26936;50.524;8.684;2023-11-22T00:32:59;7.13;;;3.88;;
41201;SDS011;26936;50.524;8.684;2023-11-22T00:35:24;5.05;;;3.17;;
41201;SDS011;26936;50.524;8.684;2023-11-22T00:37:50;5.93;;;3.28;;
41201;SDS011;26936;50.524;8.684;2023-11-22T00:40:15;5.72;;;3.30;;
41201;SDS011;26936;50.524;8.684;2023-11-22T00:42:40;4.68;;;3.55;;
41201;SDS011;26936;50.524;8.684;2023-11-22T00:45:12;6.20;;;3.50;;
41201;SDS011;26936;50.524;8.684;2023-11-22T00:47:37;7.32;;;3.20;;
41201;SDS011;26936;50.524;8.684;2023-11-22T00:50:06;4.50;;;3.10;;
41201;SDS011;26936;50.524;8.684;2023-11-22T00:52:34;9.68;;;3.90;;
41201;SDS011;26936;50.524;8.684;2023-11-22T00:55:00;5.82;;;3.28;;
41201;SDS011;26936;50.524;8.684;2023-11-22T00:57:30;4.78;;;3.20;;
41201;SDS011;26936;50.524;8.684;2023-11-22T00:59:56;6.18;;;3.63;;
41201;SDS011;26936;50.524;8.684;2023-11-22T01:02:21;6.35;;;3.30;;
41201;SDS011;26936;50.524;8.684;2023-11-22T01:04:47;5.47;;;3.60;;
41201;SDS011;26936;50.524;8.684;2023-11-22T01:07:12;6.40;;;3.50;;
41201;SDS011;26936;50.524;8.684;2023-11-22T01:09:37;5.00;;;3.30;;
41201;SDS011;26936;50.524;8.684;2023-11-22T01:12:03;5.50;;;2.88;;
41201;SDS011;26936;50.524;8.684;2023-11-22T01:14:29;4.93;;;3.17;;
41201;SDS011;26936;50.524;8.684;2023-11-22T01:16:54;6.28;;;3.38;;
41201;SDS011;26936;50.524;8.684;2023-11-22T01:19:25;6.75;;;3.35;;
41201;SDS011;26936;50.524;8.684;2023-11-22T01:21:54;6.22;;;3.50;;
41201;SDS011;26936;50.524;8.684;2023-11-22T01:24:21;6.55;;;3.80;;
41201;SDS011;26936;50.524;8.684;2023-11-22T01:26:51;5.95;;;3.35;;
41201;SDS011;26936;50.524;8.684;2023-11-22T01:29:16;6.07;;;3.45;;
41201;SDS011;26936;50.524;8.684;2023-11-22T01:31:47;5.88;;;3.90;;
41201;SDS011;26936;50.524;8.684;2023-11-22T01:34:12;6.40;;;3.60;;
41201;SDS011;26936;50.524;8.684;2023-11-22T01:36:41;7.05;;;3.28;;
41201;SDS011;26936;50.524;8.684;2023-11-22T01:39:08;7.00;;;3.80;;
41201;SDS011;26936;50.524;8.684;2023-11-22T01:41:34;5.90;;;3.28;;
41201;SDS011;26936;50.524;8.684;2023-11-22T01:43:59;6.53;;;4.18;;
41201;SDS011;26936;50.524;8.684;2023-11-22T01:46:24;6.57;;;3.85;;
41201;SDS011;26936;50.524;8.684;2023-11-22T01:48:50;6.68;;;3.42;;
41201;SDS011;26936;50.524;8.684;2023-11-22T01:51:18;5.72;;;3.60;;
41201;SDS011;26936;50.524;8.684;2023-11-22T01:53:45;6.85;;;3.70;;
41201;SDS011;26936;50.524;8.684;2023-11-22T01:56:12;5.78;;;3.58;;
41201;SDS011;26936;50.524;8.684;2023-11-22T01:58:38;6.55;;;3.40;;
41201;SDS011;26936;50.524;8.684;2023-11-22T02:01:03;6.43;;;3.60;;
41201;SDS011;26936;50.524;8.684;2023-11-22T02:03:29;6.65;;;3.42;;
41201;SDS011;26936;50.524;8.684;2023-11-22T02:05:55;5.45;;;3.25;;
41201;SDS011;26936;50.524;8.684;2023-11-22T02:08:20;7.85;;;3.45;;
41201;SDS011;26936;50.524;8.684;2023-11-22T02:10:46;6.68;;;3.17;;
41201;SDS011;26936;50.524;8.684;2023-11-22T02:13:22;5.20;;;3.30;;
41201;SDS011;26936;50.524;8.684;2023-11-22T02:15:47;5.75;;;3.40;;
41201;SDS011;26936;50.524;8.684;2023-11-22T02:18:13;6.70;;;3.22;;
41201;SDS011;26936;50.524;8.684;2023-11-22T02:20:39;7.40;;;3.13;;
41201;SDS011;26936;50.524;8.684;2023-11-22T02:23:07;5.40;;;3.03;;
41201;SDS011;26936;50.524;8.684;2023-11-22T02:25:34;5.28;;;3.08;;
41201;SDS011;26936;50.524;8.684;2023-11-22T02:28:00;5.68;;;2.85;;
41201;SDS011;26936;50.524;8.684;2023-11-22T02:30:27;5.82;;;3.38;;
41201;SDS011;26936;50.524;8.684;2023-11-22T02:32:55;4.95;;;2.75;;
41201;SDS011;26936;50.524;8.684;2023-11-22T02:35:20;4.85;;;2.90;;
41201;SDS011;26936;50.524;8.684;2023-11-22T02:37:49;5.10;;;3.20;;
41201;SDS011;26936;50.524;8.684;2023-11-22T02:42:45;6.07;;;3.53;;
41201;SDS011;26936;50.524;8.684;2023-11-22T02:45:20;6.97;;;3.33;;
41201;SDS011;26936;50.524;8.684;2023-11-22T02:47:49;6.90;;;3.35;;
41201;SDS011;26936;50.524;8.684;2023-11-22T02:50:15;5.28;;;2.95;;
41201;SDS011;26936;50.524;8.684;2023-11-22T02:52:48;6.85;;;3.30;;
41201;SDS011;26936;50.524;8.684;2023-11-22T02:55:13;5.80;;;3.00;;
41201;SDS011;26936;50.524;8.684;2023-11-22T02:57:39;6.10;;;3.13;;
41201;SDS011;26936;50.524;8.684;2023-11-22T03:00:08;5.88;;;3.35;;
41201;SDS011;26936;50.524;8.684;2023-11-22T03:02:43;7.63;;;3.38;;
41201;SDS011;26936;50.524;8.684;2023-11-22T03:05:10;6.15;;;3.25;;
41201;SDS011;26936;50.524;8.684;2023-11-22T03:07:36;6.53;;;3.55;;
41201;SDS011;26936;50.524;8.684;2023-11-22T03:10:02;6.13;;;3.75;;
41201;SDS011;26936;50.524;8.684;2023-11-22T03:12:28;4.93;;;3.15;;
41201;SDS011;26936;50.524;8.684;2023-11-22T03:14:58;6.82;;;3.60;;
41201;SDS011;26936;50.524;8.684;2023-11-22T03:17:27;6.85;;;3.33;;
41201;SDS011;26936;50.524;8.684;2023-11-22T03:19:55;7.57;;;3.53;;
41201;SDS011;26936;50.524;8.684;2023-11-22T03:22:22;6.82;;;3.47;;
41201;SDS011;26936;50.524;8.684;2023-11-22T03:24:50;8.75;;;3.60;;
41201;SDS011;26936;50.524;8.684;2023-11-22T03:27:16;7.88;;;3.65;;
41201;SDS011;26936;50.524;8.684;2023-11-22T03:29:41;6.32;;;3.58;;
41201;SDS011;26936;50.524;8.684;2023-11-22T03:32:07;8.68;;;4.20;;
41201;SDS011;26936;50.524;8.684;2023-11-22T03:34:32;9.40;;;4.22;;
41201;SDS011;26936;50.524;8.684;2023-11-22T03:36:57;4.97;;;3.03;;
41201;SDS011;26936;50.524;8.684;2023-11-22T03:39:23;6.10;;;3.50;;
41201;SDS011;26936;50.524;8.684;2023-11-22T03:41:48;7.80;;;3.58;;
41201;SDS011;26936;50.524;8.684;2023-11-22T03:44:15;5.55;;;3.60;;
41201;SDS011;26936;50.524;8.684;2023-11-22T03:46:41;6.45;;;3.85;;
41201;SDS011;26936;50.524;8.684;2023-11-22T03:49:06;7.32;;;3.83;;
41201;SDS011;26936;50.524;8.684;2023-11-22T03:51:32;7.13;;;3.72;;
41201;SDS011;26936;50.524;8.684;2023-11-22T03:53:58;7.47;;;3.90;;
41201;SDS011;26936;50.524;8.684;2023-11-22T03:56:24;6.57;;;4.18;;
41201;SDS011;26936;50.524;8.684;2023-11-22T03:58:50;9.15;;;4.20;;
41201;SDS011;26936;50.524;8.684;2023-11-22T04:01:15;7.38;;;3.83;;
41201;SDS011;26936;50.524;8.684;2023-11-22T04:03:45;5.85;;;3.28;;
41201;SDS011;26936;50.524;8.684;2023-11-22T04:06:11;7.28;;;4.13;;
41201;SDS011;26936;50.524;8.684;2023-11-22T04:08:38;8.80;;;4.07;;
41201;SDS011;26936;50.524;8.684;2023-11-22T04:11:04;6.50;;;4.10;;
41201;SDS011;26936;50.524;8.684;2023-11-22T04:13:30;9.82;;;4.15;;
41201;SDS011;26936;50.524;8.684;2023-11-22T04:15:56;6.00;;;3.90;;
41201;SDS011;26936;50.524;8.684;2023-11-22T04:18:21;6.95;;;4.00;;
41201;SDS011;26936;50.524;8.684;2023-11-22T04:20:46;9.15;;;3.40;;
41201;SDS011;26936;50.524;8.684;2023-11-22T04:23:13;8.07;;;3.88;;
41201;SDS011;26936;50.524;8.684;2023-11-22T04:25:39;7.57;;;3.83;;
41201;SDS011;26936;50.524;8.684;2023-11-22T04:28:06;7.65;;;4.32;;
41201;SDS011;26936;50.524;8.684;2023-11-22T04:30:33;8.30;;;4.60;;
41201;SDS011;26936;50.524;8.684;2023-11-22T04:32:59;6.60;;;3.40;;
41201;SDS011;26936;50.524;8.684;2023-11-22T04:35:28;6.72;;;3.70;;
41201;SDS011;26936;50.524;8.684;2023-11-22T04:37:53;7.93;;;3.47;;
41201;SDS011;26936;50.524;8.684;2023-11-22T04:40:20;7.50;;;3.88;;
41201;SDS011;26936;50.524;8.684;2023-11-22T04:42:45;6.78;;;4.05;;
41201;SDS011;26936;50.524;8.684;2023-11-22T04:45:11;7.68;;;3.58;;
41201;SDS011;26936;50.524;8.684;2023-11-22T04:47:41;6.57;;;3.60;;
41201;SDS011;26936;50.524;8.684;2023-11-22T04:50:07;7.78;;;3.45;;
41201;SDS011;26936;50.524;8.684;2023-11-22T04:52:32;6.90;;;3.72;;
41201;SDS011;26936;50.524;8.684;2023-11-22T04:54:58;9.20;;;3.90;;
41201;SDS011;26936;50.524;8.684;2023-11-22T04:57:23;6.05;;;3.67;;
41201;SDS011;26936;50.524;8.684;2023-11-22T04:59:48;6.88;;;3.72;;
41201;SDS011;26936;50.524;8.684;2023-11-22T05:02:13;6.68;;;3.58;;
41201;SDS011;26936;50.524;8.684;2023-11-22T05:04:39;6.55;;;3.90;;
41201;SDS011;26936;50.524;8.684;2023-11-22T05:07:04;6.95;;;3.70;;
41201;SDS011;26936;50.524;8.684;2023-11-22T05:09:29;6.60;;;3.65;;
41201;SDS011;26936;50.524;8.684;2023-11-22T05:11:55;6.95;;;3.55;;
41201;SDS011;26936;50.524;8.684;2023-11-22T05:14:20;6.75;;;3.40;;
41201;SDS011;26936;50.524;8.684;2023-11-22T05:16:45;6.93;;;3.53;;
41201;SDS011;26936;50.524;8.684;2023-11-22T05:19:11;10.05;;;4.00;;
41201;SDS011;26936;50.524;8.684;2023-11-22T05:21:36;7.50;;;3.58;;
41201;SDS011;26936;50.524;8.684;2023-11-22T05:24:01;10.57;;;3.58;;
41201;SDS011;26936;50.524;8.684;2023-11-22T05:26:27;6.60;;;3.42;;
41201;SDS011;26936;50.524;8.684;2023-11-22T05:28:52;6.55;;;3.70;;
41201;SDS011;26936;50.524;8.684;2023-11-22T05:31:19;6.97;;;3.72;;
41201;SDS011;26936;50.524;8.684;2023-11-22T05:33:45;5.53;;;3.05;;
41201;SDS011;26936;50.524;8.684;2023-11-22T05:36:10;6.85;;;3.25;;
41201;SDS011;26936;50.524;8.684;2023-11-22T05:38:36;6.50;;;3.33;;
41201;SDS011;26936;50.524;8.684;2023-11-22T05:41:03;6.30;;;3.47;;
41201;SDS011;26936;50.524;8.684;2023-11-22T05:43:28;7.57;;;3.72;;
41201;SDS011;26936;50.524;8.684;2023-11-22T05:45:53;7.18;;;3.05;;
41201;SDS011;26936;50.524;8.684;2023-11-22T05:48:19;7.32;;;3.92;;
41201;SDS011;26936;50.524;8.684;2023-11-22T05:50:45;6.18;;;3.65;;
41201;SDS011;26936;50.524;8.684;2023-11-22T05:53:11;7.63;;;3.65;;
41201;SDS011;26936;50.524;8.684;2023-11-22T05:55:36;8.63;;;3.50;;
41201;SDS011;26936;50.524;8.684;2023-11-22T05:58:02;6.88;;;3.50;;
41201;SDS011;26936;50.524;8.684;2023-11-22T06:00:28;7.03;;;3.17;;
41201;SDS011;26936;50.524;8.684;2023-11-22T06:02:54;7.40;;;3.60;;
41201;SDS011;26936;50.524;8.684;2023-11-22T06:05:20;7.70;;;3.70;;
41201;SDS011;26936;50.524;8.684;2023-11-22T06:07:45;7.47;;;3.67;;
41201;SDS011;26936;50.524;8.684;2023-11-22T06:10:11;9.48;;;3.47;;
41201;SDS011;26936;50.524;8.684;2023-11-22T06:12:38;7.25;;;3.70;;
41201;SDS011;26936;50.524;8.684;2023-11-22T06:15:03;9.07;;;3.83;;
41201;SDS011;26936;50.524;8.684;2023-11-22T06:17:29;9.27;;;4.22;;
41201;SDS011;26936;50.524;8.684;2023-11-22T06:19:55;11.13;;;5.18;;
41201;SDS011;26936;50.524;8.684;2023-11-22T06:22:20;12.40;;;5.80;;
41201;SDS011;26936;50.524;8.684;2023-11-22T06:24:46;10.73;;;5.70;;
41201;SDS011;26936;50.524;8.684;2023-11-22T06:27:13;9.13;;;4.97;;
41201;SDS011;26936;50.524;8.684;2023-11-22T06:32:37;8.18;;;3.67;;
41201;SDS011;26936;50.524;8.684;2023-11-22T06:35:13;8.55;;;4.20;;
41201;SDS011;26936;50.524;8.684;2023-11-22T06:37:40;7.35;;;3.70;;
41201;SDS011;26936;50.524;8.684;2023-11-22T06:40:08;7.40;;;3.50;;
41201;SDS011;26936;50.524;8.684;2023-11-22T06:42:37;6.82;;;3.78;;
41201;SDS011;26936;50.524;8.684;2023-11-22T06:45:06;6.32;;;3.30;;
41201;SDS011;26936;50.524;8.684;2023-11-22T06:47:35;6.60;;;3.50;;
41201;SDS011;26936;50.524;8.684;2023-11-22T06:50:14;8.45;;;3.90;;
41201;SDS011;26936;50.524;8.684;2023-11-22T06:52:41;8.07;;;4.13;;
41201;SDS011;26936;50.524;8.684;2023-11-22T06:55:10;9.60;;;3.78;;
41201;SDS011;26936;50.524;8.684;2023-11-22T06:57:36;8.75;;;4.07;;
41201;SDS011;26936;50.524;8.684;2023-11-22T07:00:03;7.93;;;3.38;;
41201;SDS011;26936;50.524;8.684;2023-11-22T07:02:45;9.75;;;3.45;;
41201;SDS011;26936;50.524;8.684;2023-11-22T07:05:21;7.05;;;3.63;;
41201;SDS011;26936;50.524;8.684;2023-11-22T07:07:46;6.97;;;3.88;;
41201;SDS011;26936;50.524;8.684;2023-11-22T07:10:21;7.03;;;3.72;;
41201;SDS011;26936;50.524;8.684;2023-11-22T07:12:47;7.63;;;3.55;;
41201;SDS011;26936;50.524;8.684;2023-11-22T07:15:15;9.70;;;4.45;;
41201;SDS011;26936;50.524;8.684;2023-11-22T07:17:47;7.53;;;3.70;;
41201;SDS011;26936;50.524;8.684;2023-11-22T07:20:20;8.10;;;3.50;;
41201;SDS011;26936;50.524;8.684;2023-11-22T07:23:03;6.63;;;3.65;;
41201;SDS011;26936;50.524;8.684;2023-11-22T07:25:38;7.30;;;3.35;;
41201;SDS011;26936;50.524;8.684;2023-11-22T07:28:09;5.80;;;3.55;;
41201;SDS011;26936;50.524;8.684;2023-11-22T07:30:35;15.63;;;9.32;;
41201;SDS011;26936;50.524;8.684;2023-11-22T07:33:12;9.90;;;5.40;;
41201;SDS011;26936;50.524;8.684;2023-11-22T07:35:51;11.30;;;4.82;;
41201;SDS011;26936;50.524;8.684;2023-11-22T07:38:20;10.60;;;4.15;;
41201;SDS011;26936;50.524;8.684;2023-11-22T07:40:53;6.95;;;3.53;;
41201;SDS011;26936;50.524;8.684;2023-11-22T07:43:32;7.95;;;3.70;;
41201;SDS011;26936;50.524;8.684;2023-11-22T07:46:06;8.18;;;3.60;;
41201;SDS011;26936;50.524;8.684;2023-11-22T07:48:47;7.18;;;4.03;;
41201;SDS011;26936;50.524;8.684;2023-11-22T07:51:15;8.43;;;3.63;;
41201;SDS011;26936;50.524;8.684;2023-11-22T07:53:41;8.63;;;4.38;;
41201;SDS011;26936;50.524;8.684;2023-11-22T07:56:13;7.88;;;4.20;;
41201;SDS011;26936;50.524;8.684;2023-11-22T07:58:53;7.70;;;4.22;;
41201;SDS011;26936;50.524;8.684;2023-11-22T08:01:21;8.43;;;4.35;;
41201;SDS011;26936;50.524;8.684;2023-11-22T08:03:57;7.57;;;3.55;;
41201;SDS011;26936;50.524;8.684;2023-11-22T08:06:25;6.30;;;3.55;;
41201;SDS011;26936;50.524;8.684;2023-11-22T08:08:51;7.40;;;3.40;;
41201;SDS011;26936;50.524;8.684;2023-11-22T08:11:32;7.07;;;3.63;;
41201;SDS011;26936;50.524;8.684;2023-11-22T08:13:57;8.63;;;3.65;;
41201;SDS011;26936;50.524;8.684;2023-11-22T08:16:24;8.35;;;4.20;;
41201;SDS011;26936;50.524;8.684;2023-11-22T08:18:50;7.40;;;3.80;;
41201;SDS011;26936;50.524;8.684;2023-11-22T08:21:16;7.28;;;3.85;;
41201;SDS011;26936;50.524;8.684;2023-11-22T08:23:45;8.38;;;4.10;;
41201;SDS011;26936;50.524;8.684;2023-11-22T08:26:31;8.50;;;4.28;;
41201;SDS011;26936;50.524;8.684;2023-11-22T08:28:56;7.82;;;3.58;;
41201;SDS011;26936;50.524;8.684;2023-11-22T08:31:24;6.43;;;3.40;;
41201;SDS011;26936;50.524;8.684;2023-11-22T08:33:52;6.57;;;3.40;;
41201;SDS011;26936;50.524;8.684;2023-11-22T08:36:18;5.75;;;3.20;;
41201;SDS011;26936;50.524;8.684;2023-11-22T08:38:43;6.75;;;3.20;;
41201;SDS011;26936;50.524;8.684;2023-11-22T08:41:15;7.38;;;3.47;;
41201;SDS011;26936;50.524;8.684;2023-11-22T08:43:44;6.75;;;3.47;;
41201;SDS011;26936;50.524;8.684;2023-11-22T08:46:13;6.13;;;3.55;;
41201;SDS011;26936;50.524;8.684;2023-11-22T08:48:56;6.20;;;3.55;;
41201;SDS011;26936;50.524;8.684;2023-11-22T08:51:27;8.15;;;3.75;;
41201;SDS011;26936;50.524;8.684;2023-11-22T08:57:14;8.30;;;3.88;;
41201;SDS011;26936;50.524;8.684;2023-11-22T08:59:43;6.30;;;3.83;;
41201;SDS011;26936;50.524;8.684;2023-11-22T09:02:15;6.35;;;3.40;;
41201;SDS011;26936;50.524;8.684;2023-11-22T09:05:01;7.07;;;3.55;;
41201;SDS011;26936;50.524;8.684;2023-11-22T09:07:44;9.30;;;4.05;;
41201;SDS011;26936;50.524;8.684;2023-11-22T09:10:13;7.15;;;3.60;;
41201;SDS011;26936;50.524;8.684;2023-11-22T09:12:50;6.47;;;3.67;;
41201;SDS011;26936;50.524;8.684;2023-11-22T09:15:18;7.38;;;3.72;;
41201;SDS011;26936;50.524;8.684;2023-11-22T09:17:53;6.50;;;3.90;;
41201;SDS011;26936;50.524;8.684;2023-11-22T09:20:43;7.47;;;3.90;;
41201;SDS011;26936;50.524;8.684;2023-11-22T09:23:15;6.18;;;3.53;;
41201;SDS011;26936;50.524;8.684;2023-11-22T09:26:01;6.90;;;3.78;;
41201;SDS011;26936;50.524;8.684;2023-11-22T09:28:27;8.10;;;3.38;;
41201;SDS011;26936;50.524;8.684;2023-11-22T09:30:53;4.97;;;2.88;;
41201;SDS011;26936;50.524;8.684;2023-11-22T09:33:26;9.55;;;3.50;;
41201;SDS011;26936;50.524;8.684;2023-11-22T09:35:52;9.95;;;3.33;;
41201;SDS011;26936;50.524;8.684;2023-11-22T09:38:23;5.50;;;3.25;;
41201;SDS011;26936;50.524;8.684;2023-11-22T09:40:50;6.40;;;3.38;;
41201;SDS011;26936;50.524;8.684;2023-11-22T09:43:18;7.50;;;3.45;;
41201;SDS011;26936;50.524;8.684;2023-11-22T09:45:48;4.97;;;2.70;;
41201;SDS011;26936;50.524;8.684;2023-11-22T09:48:18;4.15;;;2.65;;
41201;SDS011;26936;50.524;8.684;2023-11-22T09:55:58;4.75;;;2.47;;
41201;SDS011;26936;50.524;8.684;2023-11-22T09:58:32;4.30;;;2.42;;
41201;SDS011;26936;50.524;8.684;2023-11-22T10:01:08;5.63;;;3.00;;
41201;SDS011;26936;50.524;8.684;2023-11-22T10:03:42;5.57;;;2.53;;
41201;SDS011;26936;50.524;8.684;2023-11-22T10:06:15;4.53;;;2.42;;
41201;SDS011;26936;50.524;8.684;2023-11-22T10:09:08;5.03;;;2.33;;
41201;SDS011;26936;50.524;8.684;2023-11-22T10:14:09;3.72;;;2.15;;
41201;SDS011;26936;50.524;8.684;2023-11-22T10:16:42;4.70;;;2.58;;
41201;SDS011;26936;50.524;8.684;2023-11-22T10:19:25;3.63;;;2.22;;
41201;SDS011;26936;50.524;8.684;2023-11-22T10:22:03;4.28;;;2.30;;
41201;SDS011;26936;50.524;8.684;2023-11-22T10:24:31;3.92;;;2.53;;
41201;SDS011;26936;50.524;8.684;2023-11-22T10:27:03;3.63;;;2.15;;
41201;SDS011;26936;50.524;8.684;2023-11-22T10:29:32;3.47;;;2.22;;
41201;SDS011;26936;50.524;8.684;2023-11-22T10:32:01;6.45;;;2.38;;
41201;SDS011;26936;50.524;8.684;2023-11-22T10:34:42;4.15;;;2.40;;
41201;SDS011;26936;50.524;8.684;2023-11-22T10:37:26;6.20;;;2.47;;
41201;SDS011;26936;50.524;8.684;2023-11-22T10:39:54;4.07;;;2.50;;
41201;SDS011;26936;50.524;8.684;2023-11-22T10:42:23;4.63;;;2.20;;
41201;SDS011;26936;50.524;8.684;2023-11-22T10:44:58;4.00;;;1.95;;
41201;SDS011;26936;50.524;8.684;2023-11-22T10:48:00;4.35;;;2.35;;
41201;SDS011;26936;50.524;8.684;2023-11-22T10:50:36;5.00;;;2.15;;
41201;SDS011;26936;50.524;8.684;2023-11-22T10:53:20;4.72;;;2.40;;
41201;SDS011;26936;50.524;8.684;2023-11-22T10:55:59;2.85;;;1.88;;
41201;SDS011;26936;50.524;8.684;2023-11-22T11:02:38;7.60;;;2.40;;
41201;SDS011;26936;50.524;8.684;2023-11-22T11:05:18;4.68;;;2.30;;
41201;SDS011;26936;50.524;8.684;2023-11-22T11:10:41;4.80;;;2.50;;
41201;SDS011;26936;50.524;8.684;2023-11-22T11:13:30;6.35;;;2.40;;
41201;SDS011;26936;50.524;8.684;2023-11-22T11:15:58;4.60;;;2.40;;
41201;SDS011;26936;50.524;8.684;2023-11-22T11:18:27;4.05;;;2.15;;
41201;SDS011;26936;50.524;8.684;2023-11-22T11:20:54;3.97;;;2.35;;
41201;SDS011;26936;50.524;8.684;2023-11-22T11:23:41;4.47;;;2.33;;
41201;SDS011;26936;50.524;8.684;2023-11-22T11:28:47;4.75;;;2.45;;
41201;SDS011;26936;50.524;8.684;2023-11-22T11:31:23;4.75;;;2.50;;
41201;SDS011;26936;50.524;8.684;2023-11-22T11:36:25;3.08;;;2.20;;
41201;SDS011;26936;50.524;8.684;2023-11-22T11:38:52;3.63;;;2.13;;
41201;SDS011;26936;50.524;8.684;2023-11-22T11:41:23;3.80;;;2.40;;
41201;SDS011;26936;50.524;8.684;2023-11-22T11:43:59;5.80;;;2.60;;
41201;SDS011;26936;50.524;8.684;2023-11-22T11:46:28;4.65;;;2.17;;
41201;SDS011;26936;50.524;8.684;2023-11-22T11:48:54;3.97;;;2.53;;
41201;SDS011;26936;50.524;8.684;2023-11-22T11:51:27;4.25;;;2.28;;
41201;SDS011;26936;50.524;8.684;2023-11-22T11:54:01;4.38;;;2.42;;
41201;SDS011;26936;50.524;8.684;2023-11-22T11:56:26;3.13;;;2.13;;
41201;SDS011;26936;50.524;8.684;2023-11-22T11:59:01;3.70;;;2.05;;
41201;SDS011;26936;50.524;8.684;2023-11-22T12:01:47;5.50;;;2.10;;
41201;SDS011;26936;50.524;8.684;2023-11-22T12:04:23;4.05;;;2.25;;
41201;SDS011;26936;50.524;8.684;2023-11-22T12:07:07;4.53;;;2.50;;
41201;SDS011;26936;50.524;8.684;2023-11-22T12:09:39;2.92;;;2.08;;
41201;SDS011;26936;50.524;8.684;2023-11-22T12:12:12;5.35;;;1.90;;
41201;SDS011;26936;50.524;8.684;2023-11-22T12:15:03;4.15;;;1.90;;
41201;SDS011;26936;50.524;8.684;2023-11-22T12:17:35;3.67;;;2.10;;
41201;SDS011;26936;50.524;8.684;2023-11-22T12:20:13;5.18;;;2.20;;
41201;SDS011;26936;50.524;8.684;2023-11-22T12:22:44;4.22;;;2.10;;
41201;SDS011;26936;50.524;8.684;2023-11-22T12:25:13;5.30;;;2.55;;
41201;SDS011;26936;50.524;8.684;2023-11-22T12:27:43;5.75;;;2.13;;
41201;SDS011;26936;50.524;8.684;2023-11-22T12:30:26;3.85;;;2.15;;
41201;SDS011;26936;50.524;8.684;2023-11-22T12:32:53;3.60;;;2.20;;
41201;SDS011;26936;50.524;8.684;2023-11-22T12:35:19;5.70;;;2.63;;
41201;SDS011;26936;50.524;8.684;2023-11-22T12:37:44;4.65;;;2.30;;
41201;SDS011;26936;50.524;8.684;2023-11-22T12:40:09;4.60;;;2.78;;
41201;SDS011;26936;50.524;8.684;2023-11-22T12:42:45;3.65;;;2.10;;
41201;SDS011;26936;50.524;8.684;2023-11-22T12:45:22;4.78;;;2.83;;
41201;SDS011;26936;50.524;8.684;2023-11-22T12:47:52;3.72;;;2.28;;
41201;SDS011;26936;50.524;8.684;2023-11-22T12:53:12;5.45;;;2.55;;
41201;SDS011;26936;50.524;8.684;2023-11-22T12:58:11;4.30;;;2.20;;
41201;SDS011;26936;50.524;8.684;2023-11-22T13:00:41;4.57;;;2.20;;
41201;SDS011;26936;50.524;8.684;2023-11-22T13:03:07;4.45;;;2.20;;
41201;SDS011;26936;50.524;8.684;2023-11-22T13:05:35;3.53;;;2.50;;
41201;SDS011;26936;50.524;8.684;2023-11-22T13:08:04;5.90;;;2.45;;
41201;SDS011;26936;50.524;8.684;2023-11-22T13:10:30;3.58;;;2.20;;
41201;SDS011;26936;50.524;8.684;2023-11-22T13:12:56;4.10;;;2.40;;
41201;SDS011;26936;50.524;8.684;2023-11-22T13:15:22;5.95;;;2.42;;
41201;SDS011;26936;50.524;8.684;2023-11-22T13:17:49;3.38;;;1.90;;
41201;SDS011;26936;50.524;8.684;2023-11-22T13:20:20;3.85;;;1.88;;
41201;SDS011;26936;50.524;8.684;2023-11-22T13:22:50;3.03;;;2.08;;
41201;SDS011;26936;50.524;8.684;2023-11-22T13:25:16;3.65;;;2.00;;
41201;SDS011;26936;50.524;8.684;2023-11-22T13:27:44;4.50;;;2.03;;
41201;SDS011;26936;50.524;8.684;2023-11-22T13:30:15;3.70;;;2.33;;
41201;SDS011;26936;50.524;8.684;2023-11-22T13:32:54;4.18;;;2.17;;
41201;SDS011;26936;50.524;8.684;2023-11-22T13:35:23;2.90;;;2.10;;
41201;SDS011;26936;50.524;8.684;2023-11-22T13:37:49;2.83;;;1.98;;
41201;SDS011;26936;50.524;8.684;2023-11-22T13:40:15;2.72;;;2.00;;
41201;SDS011;26936;50.524;8.684;2023-11-22T13:42:44;4.32;;;2.10;;
41201;SDS011;26936;50.524;8.684;2023-11-22T13:45:11;3.92;;;2.15;;
41201;SDS011;26936;50.524;8.684;2023-11-22T13:47:45;2.85;;;2.17;;
41201;SDS011;26936;50.524;8.684;2023-11-22T13:50:16;4.45;;;2.17;;
41201;SDS011;26936;50.524;8.684;2023-11-22T13:52:53;5.40;;;2.40;;
41201;SDS011;26936;50.524;8.684;2023-11-22T13:57:52;2.97;;;1.83;;
41201;SDS011;26936;50.524;8.684;2023-11-22T14:00:18;2.97;;;1.95;;
41201;SDS011;26936;50.524;8.684;2023-11-22T14:02:48;3.88;;;2.40;;
41201;SDS011;26936;50.524;8.684;2023-11-22T14:05:16;3.97;;;1.80;;
41201;SDS011;26936;50.524;8.684;2023-11-22T14:07:42;4.20;;;2.25;;
41201;SDS011;26936;50.524;8.684;2023-11-22T14:10:08;3.67;;;2.20;;
41201;SDS011;26936;50.524;8.684;2023-11-22T14:12:35;3.30;;;2.10;;
41201;SDS011;26936;50.524;8.684;2023-11-22T14:15:01;3.05;;;2.03;;
41201;SDS011;26936;50.524;8.684;2023-11-22T14:17:29;3.47;;;1.90;;
41201;SDS011;26936;50.524;8.684;2023-11-22T14:19:55;3.92;;;2.03;;
41201;SDS011;26936;50.524;8.684;2023-11-22T14:24:49;3.97;;;2.15;;
41201;SDS011;26936;50.524;8.684;2023-11-22T14:27:44;3.75;;;2.45;;
41201;SDS011;26936;50.524;8.684;2023-11-22T14:30:38;3.58;;;1.90;;
41201;SDS011;26936;50.524;8.684;2023-11-22T14:33:05;3.92;;;2.22;;
41201;SDS011;26936;50.524;8.684;2023-11-22T14:35:34;6.00;;;2.17;;
41201;SDS011;26936;50.524;8.684;2023-11-22T14:38:06;3.50;;;2.33;;
41201;SDS011;26936;50.524;8.684;2023-11-22T14:40:34;3.95;;;2.25;;
41201;SDS011;26936;50.524;8.684;2023-11-22T14:43:03;3.22;;;1.90;;
41201;SDS011;26936;50.524;8.684;2023-11-22T14:45:28;3.72;;;2.50;;
41201;SDS011;26936;50.524;8.684;2023-11-22T14:47:54;4.03;;;2.17;;
41201;SDS011;26936;50.524;8.684;2023-11-22T14:50:21;13.45;;;2.17;;
41201;SDS011;26936;50.524;8.684;2023-11-22T14:52:50;4.95;;;2.65;;
41201;SDS011;26936;50.524;8.684;2023-11-22T14:55:15;4.47;;;2.05;;
41201;SDS011;26936;50.524;8.684;2023-11-22T14:57:43;4.32;;;2.22;;
41201;SDS011;26936;50.524;8.684;2023-11-22T15:00:09;3.95;;;2.10;;
41201;SDS011;26936;50.524;8.684;2023-11-22T15:02:38;4.65;;;2.20;;
41201;SDS011;26936;50.524;8.684;2023-11-22T15:05:04;3.40;;;1.98;;
41201;SDS011;26936;50.524;8.684;2023-11-22T15:07:34;2.80;;;1.95;;
41201;SDS011;26936;50.524;8.684;2023-11-22T15:10:00;5.15;;;2.45;;
41201;SDS011;26936;50.524;8.684;2023-11-22T15:12:26;4.90;;;3.45;;
41201;SDS011;26936;50.524;8.684;2023-11-22T15:14:55;3.88;;;2.22;;
41201;SDS011;26936;50.524;8.684;2023-11-22T15:17:20;4.38;;;2.28;;
41201;SDS011;26936;50.524;8.684;2023-11-22T15:19:46;2.97;;;1.92;;
41201;SDS011;26936;50.524;8.684;2023-11-22T15:22:11;4.43;;;2.10;;
41201;SDS011;26936;50.524;8.684;2023-11-22T15:24:36;4.87;;;2.87;;
41201;SDS011;26936;50.524;8.684;2023-11-22T15:27:01;5.07;;;2.37;;
41201;SDS011;26936;50.524;8.684;2023-11-22T15:29:27;3.17;;;1.92;;
41201;SDS011;26936;50.524;8.684;2023-11-22T15:31:52;4.10;;;2.23;;
41201;SDS011;26936;50.524;8.684;2023-11-22T15:34:19;4.30;;;2.50;;
41201;SDS011;26936;50.524;8.684;2023-11-22T15:36:44;7.53;;;2.63;;
41201;SDS011;26936;50.524;8.684;2023-11-22T15:39:10;3.97;;;2.40;;